Harbor Springs, MI

1:39 AM EDT on July 21, 2017 (GMT -0400)
Harbor Springs

Weather History for KMGN - March, 2013

Change the Weather History Date:

Sunday, March 31, 2013

  Actual Average (KPLN) Record (KPLN)
Temperature  
Mean Temperature 34 °F -  
Max Temperature 39 °F 43 °F 71 °F (1999)
Min Temperature 28 °F 23 °F -5 °F (1975)
Degree Days  
Heating Degree Days 32    
Moisture  
Dew Point 32 °F    
Average Humidity 92    
Maximum Humidity 98    
Minimum Humidity 70    
Precipitation  
Precipitation 0.00 in - - ()
Sea Level Pressure  
Sea Level Pressure 29.64 in    
Wind  
Wind Speed 7 mph (WSW)    
Max Wind Speed 20 mph    
Max Gust Speed 30 mph    
Visibility 3 miles    
Events Fog , Rain , Snow    
Averages and records for this station are not official NWS values.
T = Trace of Precipitation, MM = Missing Value Source: NWS Daily Summary

Daily Weather History Graph

Daily Weather History Graph

Search for Another Location

Airport or City:

Trip Planner

Search our weather history database for the weather conditions in past years. The results will help you decide how hot, cold, wet, or windy it might be!

Date:

Astronomy

Mar. 31, 2013 Rise Set
Actual Time 7:21 AM EDT 8:06 PM EDT
Civil Twilight 6:51 AM EDT 8:36 PM EDT
Nautical Twilight 6:16 AM EDT 9:12 PM EDT
Astronomical Twilight 5:39 AM EDT 9:49 PM EDT
Moon 12:23 AM EDT (3/31) 9:56 AM EDT (3/31)
Length of Visible Light 13h 45m
Length of Day
12h 45m
Waning Gibbous, 78% of the Moon is Illuminated
Mar 31
Waning Gibbous
Apr 3
Last Quarter
Apr 10
New
Apr 18
First Quarter
Apr 25
Full

Hourly Weather History & Observations

Time (EDT) Temp. Windchill Dew Point Humidity Pressure Visibility Wind Dir Wind Speed Gust Speed Precip Events Conditions
12:15 AM 37.6 °F 33.1 °F 35.6 °F 93% 29.78 in 4.0 mi SSW 5.8 mph - N/A Rain Light Rain
12:35 AM 37.6 °F 33.1 °F 35.6 °F 93% 29.77 in 4.0 mi SSW 5.8 mph - N/A   Heavy Drizzle
12:55 AM 37.6 °F 34.0 °F 35.8 °F 93% 29.76 in 4.0 mi SW 4.6 mph - N/A Rain Rain
1:15 AM 37.2 °F 34.7 °F 35.4 °F 93% 29.75 in 3.0 mi WSW 3.5 mph - N/A   Drizzle
1:35 AM 37.6 °F 34.0 °F 36.0 °F 94% 29.74 in 4.0 mi SSW 4.6 mph - N/A   Drizzle
1:55 AM 38.1 °F 31.7 °F 36.5 °F 94% 29.72 in 5.0 mi SSW 9.2 mph - N/A Rain Rain
2:15 AM 38.5 °F 32.1 °F 36.7 °F 93% 29.71 in 5.0 mi SW 9.2 mph - N/A   Light Drizzle
2:35 AM 39.0 °F 32.3 °F 37.0 °F 93% 29.70 in 5.0 mi SSW 10.4 mph - N/A Rain Light Rain
2:55 AM 38.3 °F 32.5 °F 36.3 °F 93% 29.69 in 4.0 mi SW 8.1 mph - N/A   Light Drizzle
3:15 AM 37.6 °F 33.1 °F 35.8 °F 93% 29.69 in 2.0 mi WSW 5.8 mph - N/A Rain Light Rain
3:36 AM 37.4 °F 34.9 °F 36.1 °F 95% 29.68 in 0.8 mi West 3.5 mph - N/A Rain Light Rain
3:55 AM 37.4 °F 33.8 °F 36.3 °F 96% 29.68 in 0.5 mi WSW 4.6 mph - N/A   Light Drizzle
4:15 AM 37.6 °F 33.1 °F 36.5 °F 96% 29.67 in 0.2 mi West 5.8 mph - N/A Rain Light Rain
4:35 AM 36.7 °F 31.2 °F 35.6 °F 96% 29.66 in 0.2 mi WSW 6.9 mph - N/A Fog Fog
4:55 AM 35.6 °F 29.9 °F 34.7 °F 97% 29.66 in 0.2 mi West 6.9 mph - N/A Fog Fog
5:15 AM 35.6 °F 30.7 °F 34.3 °F 95% 29.65 in 0.2 mi WSW 5.8 mph - N/A Fog Fog
5:35 AM 35.6 °F 30.7 °F 34.3 °F 95% 29.65 in 0.2 mi West 5.8 mph - N/A Fog Fog
5:55 AM 35.2 °F 30.3 °F 34.3 °F 97% 29.64 in 0.2 mi WSW 5.8 mph - N/A Fog Fog
6:15 AM 34.9 °F 30.8 °F 34.0 °F 97% 29.63 in 0.2 mi West 4.6 mph - N/A Fog Fog
6:35 AM 34.0 °F 28.8 °F 33.1 °F 96% 29.63 in 0.2 mi WSW 5.8 mph - N/A Fog Fog
6:55 AM 33.3 °F 27.1 °F 32.5 °F 97% 29.63 in 0.2 mi WSW 6.9 mph - N/A Fog Fog
7:15 AM 33.3 °F 27.9 °F 32.5 °F 97% 29.63 in 0.2 mi WSW 5.8 mph - N/A Fog Fog
7:35 AM 32.9 °F 27.5 °F 32.2 °F 97% 29.64 in 0.2 mi WSW 5.8 mph - N/A Fog Fog
7:55 AM 32.9 °F 26.7 °F 32.0 °F 96% 29.64 in 0.2 mi West 6.9 mph - N/A Fog Fog
8:15 AM 32.9 °F 25.9 °F 32.0 °F 96% 29.64 in 0.2 mi West 8.1 mph - N/A Fog Fog
8:35 AM 32.9 °F 27.5 °F 32.0 °F 96% 29.63 in 0.2 mi WSW 5.8 mph - N/A Fog Fog
8:55 AM 32.9 °F 26.7 °F 32.0 °F 96% 29.63 in 0.2 mi West 6.9 mph - N/A Fog Fog
9:15 AM 32.9 °F 27.5 °F 32.0 °F 96% 29.63 in 0.2 mi West 5.8 mph - N/A Fog Fog
9:35 AM 32.9 °F 27.5 °F 32.0 °F 96% 29.62 in 0.2 mi WSW 5.8 mph - N/A Fog Fog
9:55 AM 32.9 °F 27.5 °F 32.0 °F 96% 29.61 in 0.2 mi WSW 5.8 mph - N/A Fog Fog
10:15 AM 32.9 °F 27.5 °F 32.2 °F 97% 29.60 in 0.2 mi WSW 5.8 mph - N/A Fog Fog
10:35 AM 33.1 °F 27.7 °F 32.4 °F 97% 29.60 in 0.2 mi WSW 5.8 mph - N/A Fog Fog
10:55 AM 33.6 °F 28.4 °F 32.9 °F 97% 29.59 in 0.2 mi WSW 5.8 mph - N/A Fog Fog
11:15 AM 34.3 °F 29.2 °F 33.6 °F 97% 29.59 in 0.2 mi WSW 5.8 mph - N/A Fog Fog
11:35 AM 35.2 °F 30.3 °F 34.7 °F 98% 29.59 in 1.2 mi WSW 5.8 mph - N/A   Overcast
11:55 AM 35.1 °F 30.1 °F 34.5 °F 98% 29.59 in 1.0 mi WSW 5.8 mph - N/A   Overcast
12:15 PM 35.2 °F 28.8 °F 34.7 °F 98% 29.59 in 1.0 mi West 8.1 mph - N/A   Overcast
12:35 PM 34.0 °F 26.0 °F 33.4 °F 98% 29.59 in 0.2 mi WSW 10.4 mph - N/A Rain Light Rain
12:55 PM 34.2 °F 26.8 °F 33.4 °F 97% 29.59 in 0.2 mi WSW 9.2 mph - N/A Fog Fog
1:15 PM 34.0 °F 27.2 °F 33.3 °F 97% 29.59 in 0.2 mi WSW 8.1 mph - N/A Fog Fog
1:35 PM 34.2 °F 27.5 °F 33.4 °F 97% 29.59 in 1.5 mi WSW 8.1 mph - N/A   Overcast
1:55 PM 34.2 °F 26.2 °F 33.4 °F 97% 29.58 in 3.0 mi WSW 10.4 mph - N/A   Overcast
2:15 PM 35.2 °F 29.5 °F 34.7 °F 98% 29.58 in 3.0 mi WSW 6.9 mph - N/A   Overcast
2:35 PM 35.2 °F 29.5 °F 34.7 °F 98% 29.58 in 4.0 mi WSW 6.9 mph - N/A   Overcast
2:55 PM 35.2 °F 32.4 °F 34.3 °F 97% 29.58 in 4.0 mi SW 3.5 mph - N/A   Overcast
3:15 PM 35.2 °F 31.2 °F 34.0 °F 95% 29.57 in 5.0 mi WSW 4.6 mph - N/A   Overcast
3:35 PM 35.6 °F 28.6 °F 33.8 °F 93% 29.56 in 7.0 mi SW 9.2 mph - N/A   Overcast
3:55 PM 35.8 °F 30.9 °F 33.8 °F 92% 29.56 in 5.0 mi WSW 5.8 mph - N/A   Overcast
4:16 PM 36.0 °F 30.3 °F 33.3 °F 90% 29.56 in 5.0 mi WSW 6.9 mph - N/A   Overcast
4:35 PM 37.0 °F 31.6 °F 33.4 °F 87% 29.56 in 5.0 mi West 6.9 mph - N/A   Overcast
4:55 PM 37.4 °F 32.1 °F 33.4 °F 86% 29.56 in 5.0 mi West 6.9 mph - N/A   Overcast
5:16 PM 35.2 °F 26.6 °F 32.5 °F 90% 29.56 in 4.0 mi WSW 12.7 mph 18.4 mph N/A Rain Light Rain
5:35 PM 35.2 °F 29.5 °F 32.7 °F 91% 29.56 in 4.0 mi WSW 6.9 mph 20.7 mph N/A Rain Rain
5:55 PM 33.3 °F 25.1 °F 31.6 °F 94% 29.57 in 1.5 mi WSW 10.4 mph 23.0 mph N/A Snow Light Snow
6:16 PM 32.9 °F 27.5 °F 31.8 °F 96% 29.58 in 1.5 mi West 5.8 mph 16.1 mph N/A Snow Light Snow
6:35 PM 32.9 °F 26.7 °F 32.0 °F 96% 29.59 in 1.8 mi WSW 6.9 mph - N/A Snow Light Snow
6:55 PM 32.9 °F 28.5 °F 31.8 °F 96% 29.59 in 2.0 mi West 4.6 mph - N/A Snow Light Snow
7:16 PM 32.9 °F 28.5 °F 32.0 °F 96% 29.59 in 3.0 mi West 4.6 mph - N/A   Overcast
7:35 PM 32.9 °F - 32.0 °F 96% 29.60 in 5.0 mi Calm Calm - N/A   Overcast
7:55 PM 32.9 °F 24.1 °F 32.0 °F 96% 29.61 in 7.0 mi WNW 11.5 mph 17.3 mph N/A Snow Light Snow
8:16 PM 32.9 °F 22.0 °F 28.4 °F 84% 29.63 in 10.0 mi NW 17.3 mph 27.6 mph N/A Snow Light Snow
8:35 PM 32.5 °F 23.7 °F 26.8 °F 79% 29.65 in 10.0 mi NW 11.5 mph 29.9 mph N/A   Overcast
8:55 PM 30.9 °F 19.8 °F 23.4 °F 74% 29.66 in 10.0 mi NW 16.1 mph 27.6 mph N/A   Overcast
9:16 PM 29.7 °F 18.6 °F 21.9 °F 73% 29.67 in 10.0 mi WNW 15.0 mph 24.2 mph N/A   Overcast
9:35 PM 28.6 °F 15.6 °F 20.7 °F 72% 29.68 in 10.0 mi WNW 19.6 mph 29.9 mph N/A   Overcast
9:55 PM 28.2 °F 17.7 °F 19.6 °F 70% 29.69 in 10.0 mi WNW 12.7 mph 19.6 mph N/A   Mostly Cloudy
10:15 PM 28.0 °F 17.5 °F 19.4 °F 70% 29.70 in 10.0 mi WNW 12.7 mph 27.6 mph N/A   Clear
10:35 PM 28.0 °F 17.5 °F 19.6 °F 71% 29.71 in 10.0 mi West 12.7 mph 21.9 mph N/A   Scattered Clouds
11:15 PM 28.0 °F 15.7 °F 20.8 °F 74% 29.71 in 10.0 mi WNW 17.3 mph 21.9 mph N/A   Overcast
11:35 PM 28.0 °F 15.3 °F 20.3 °F 73% 29.71 in 10.0 mi WNW 18.4 mph 26.5 mph N/A   Mostly Cloudy
11:55 PM 28.0 °F 17.5 °F 20.3 °F 73% 29.72 in 10.0 mi WNW 12.7 mph 20.7 mph N/A   Overcast